Latest Weather Observations for Douglas River

IDD60801

Issued at 6:31 pm CST Tuesday 30 August 2016 (issued every 30 minutes, with the page automatically refreshed every 10 minutes)

About weather observations | Map of weather stations | Latest weather observations for NT | Other Formats
Station Details ID: 014901 Name: DOUGLAS RIVER Lat: -13.83 Lon: 131.19 Height: 42.8 m
Data from the previous 72 hours. | See also: Recent months at Douglas River
Date/Time
CST
Temp
°C
App
Temp
°C
Dew
Point
°C
Rel
Hum
%
Delta-T
°C
Wind Press
QNH
hPa
Press
MSL
hPa
Rain since
9am
mm
Dir  Spd
km/h
Gust
km/h
Spd
kts
Gust
kts
30/06:30pm 31.8 34.4 17.4 42 9.2 CALM 0 0 0 0 1011.3 1011.1 0.0
30/06:00pm 33.9 35.7 16.4 35 11.1 ENE 2 6 1 3 1011.1 1010.9 0.0
30/05:30pm 35.0 36.8 15.4 31 12.3 CALM 0 0 0 0 1010.9 1010.7 0.0
30/05:00pm 34.7 35.5 15.8 32 11.9 NNE 6 9 3 5 1010.7 1010.5 0.0
30/04:30pm 35.4 36.5 15.6 30 12.5 NE 4 11 2 6 1010.8 1010.6 0.0
30/04:00pm 35.0 34.6 15.2 30 12.4 E 11 20 6 11 1010.9 1010.7 0.0
30/03:30pm 34.4 35.2 16.3 34 11.5 E 7 13 4 7 1011.1 1010.9 0.0
30/03:00pm 34.9 35.5 16.8 34 11.6 NE 9 17 5 9 1011.3 1011.1 0.0
30/02:30pm 35.3 36.3 16.9 33 11.8 N 7 9 4 5 1011.8 1011.6 0.0
30/02:00pm 33.4 34.6 17.3 38 10.3 E 7 11 4 6 1012.4 1012.2 0.0
30/01:30pm 33.1 34.5 17.7 40 9.9 NE 7 13 4 7 1013.0 1012.8 0.0
30/01:00pm 31.8 33.0 17.4 42 9.2 N 7 13 4 7 1013.9 1013.7 0.0
30/12:30pm 31.1 31.4 18.0 45 8.4 E 13 20 7 11 1014.6 1014.4 0.0
30/12:00pm 31.5 32.9 18.7 46 8.3 ESE 9 13 5 7 1015.3 1015.1 0.0
30/11:30am 29.2 31.4 19.7 56 6.2 WSW 7 13 4 7 1015.8 1015.6 0.0
30/11:00am 28.8 31.1 19.8 58 5.9 ENE 7 11 4 6 1016.6 1016.4 0.0
30/10:30am 29.2 32.1 20.6 59 5.7 N 6 11 3 6 1017.1 1016.9 0.0
30/10:00am 27.8 30.7 20.7 65 4.7 WNW 6 11 3 6 1017.4 1017.2 0.0
30/09:30am 26.8 30.1 20.7 69 4.0 WNW 4 7 2 4 1017.4 1017.2 0.0
30/09:00am 25.6 27.8 19.7 70 3.8 E 7 11 4 6 1017.6 1017.4 0.0
30/08:30am 22.9 25.8 19.8 83 2.0 SE 4 6 2 3 1017.2 1017.0 0.0
30/08:00am 20.6 23.6 18.5 88 1.3 CALM 0 0 0 0 1016.7 1016.5 0.0
30/07:30am 18.9 21.5 17.6 92 0.8 CALM 0 0 0 0 1016.0 1015.8 0.0
30/07:00am 17.7 20.0 16.7 94 0.6 CALM 0 0 0 0 1015.4 1015.2 0.0
30/06:30am 18.1 20.2 16.3 89 1.1 CALM 0 0 0 0 1015.0 1014.8 0.0
30/06:00am 19.1 21.8 17.8 92 0.8 CALM 0 0 0 0 1014.7 1014.5 0.0
30/05:30am 18.6 21.0 17.1 91 0.9 CALM 0 0 0 0 1014.4 1014.2 0.0
30/05:00am 19.0 21.7 17.7 92 0.8 CALM 0 0 0 0 1013.9 1013.7 0.0
30/04:30am 18.5 20.9 17.0 91 0.9 CALM 0 0 0 0 1013.7 1013.5 0.0
30/04:00am 20.2 22.5 17.8 86 1.5 N 2 7 1 4 1013.7 1013.5 0.0
30/03:30am 21.3 23.1 18.3 83 1.9 NNE 6 9 3 5 1013.7 1013.5 0.0
30/03:00am 21.0 23.6 18.3 84 1.7 N 2 6 1 3 1013.8 1013.6 0.0
30/02:30am 21.1 22.9 18.4 84 1.7 N 6 7 3 4 1013.9 1013.7 0.0
30/02:00am 21.5 24.5 18.5 83 1.9 CALM 0 6 0 3 1014.0 1013.8 0.0
30/01:30am 21.1 23.7 18.4 84 1.7 NW 2 6 1 3 1014.1 1013.9 0.0
30/01:00am 21.0 23.7 17.8 82 2.0 CALM 0 0 0 0 1014.2 1014.0 0.0
30/12:30am 20.8 23.5 17.7 82 1.9 CALM 0 0 0 0 1014.3 1014.1 0.0
30/12:00am 23.5 26.6 18.6 74 3.1 CALM 0 0 0 0 1014.3 1014.1 0.0
 
Date/Time
CST
Temp
°C
App
Temp
°C
Dew
Point
°C
Rel
Hum
%
Delta-T
°C
Wind Press
QNH
hPa
Press
MSL
hPa
Rain since
9am
mm
Dir  Spd
km/h
Gust
km/h
Spd
kts
Gust
kts
29/11:30pm 23.5 26.1 18.4 73 3.2 N 2 7 1 4 1014.1 1013.9 0.0
29/11:00pm 24.1 26.3 18.4 70 3.6 NNW 4 7 2 4 1013.9 1013.7 0.0
29/10:30pm 24.6 26.1 17.7 65 4.3 NW 6 9 3 5 1013.6 1013.4 0.0
29/10:00pm 25.4 26.2 17.4 61 5.0 WNW 9 15 5 8 1013.2 1013.0 0.0
29/09:30pm 25.7 26.2 16.6 57 5.6 NW 9 17 5 9 1013.1 1012.9 0.0
29/09:00pm 25.6 25.7 15.6 54 6.1 WNW 9 17 5 9 1012.6 1012.4 0.0
29/08:30pm 24.2 25.5 14.2 53 5.9 CALM 0 0 0 0 1011.8 1011.6 0.0
29/08:00pm 25.2 26.4 13.9 49 6.7 CALM 0 0 0 0 1011.5 1011.3 0.0
29/07:30pm 26.4 27.5 13.5 45 7.6 CALM 0 0 0 0 1011.1 1010.9 0.0
29/07:00pm 28.1 28.6 11.6 36 9.5 CALM 0 0 0 0 1010.7 1010.5 0.0
29/06:30pm 30.7 31.1 11.2 30 11.3 CALM 0 0 0 0 1010.4 1010.2 0.0
29/06:00pm 33.3 33.0 10.0 24 13.4 E 2 6 1 3 1010.0 1009.8 0.0
29/05:30pm 34.0 32.2 7.2 19 14.8 E 6 13 3 7 1009.9 1009.7 0.0
29/05:00pm 34.6 32.0 6.2 17 15.5 E 9 19 5 10 1009.8 1009.6 0.0
29/04:30pm 35.4 33.5 7.5 18 15.6 SE 7 13 4 7 1009.6 1009.4 0.0
29/04:00pm 35.5 33.4 6.7 17 15.9 NNE 7 15 4 8 1009.6 1009.4 0.0
29/03:30pm 35.2 32.4 7.1 17 15.6 E 11 20 6 11 1009.7 1009.5 0.0
29/03:00pm 34.6 32.5 6.8 18 15.3 W 7 11 4 6 1010.0 1009.8 0.0
29/02:30pm 34.7 32.2 8.0 19 15.0 ESE 11 20 6 11 1010.7 1010.5 0.0
29/02:00pm 33.9 31.4 8.2 20 14.4 E 11 22 6 12 1011.4 1011.2 0.0
29/01:30pm 33.4 32.4 10.2 24 13.4 NNW 6 11 3 6 1012.0 1011.8 0.0
29/01:00pm 32.9 32.3 12.4 28 12.2 NNE 7 11 4 6 1012.6 1012.4 0.0
29/12:30pm 32.6 31.9 13.1 30 11.7 NNE 9 15 5 8 1013.1 1012.9 0.0
29/12:00pm 32.2 31.6 12.3 29 11.8 N 7 15 4 8 1013.7 1013.5 0.0
29/11:30am 31.4 31.1 13.4 33 10.8 N 7 11 4 6 1014.3 1014.1 0.0
29/11:00am 31.1 31.0 15.0 37 9.9 NNW 9 15 5 8 1014.8 1014.6 0.0
29/10:30am 29.1 30.2 17.0 48 7.6 NNW 7 13 4 7 1015.1 1014.9 0.0
29/10:00am 28.6 29.9 18.5 54 6.5 WNW 9 13 5 7 1015.5 1015.3 0.0
29/09:30am 26.8 29.7 20.6 69 4.1 WNW 6 11 3 6 1015.5 1015.3 0.0
29/09:00am 24.5 28.6 20.7 79 2.5 CALM 0 2 0 1 1015.5 1015.3 0.0
29/08:30am 20.6 24.1 19.5 93 0.7 CALM 0 0 0 0 1015.3 1015.1 0.0
29/08:00am 18.7 20.2 17.7 94 0.6 NE 6 9 3 5 1014.9 1014.7 0.0
29/07:30am 17.4 18.9 16.7 96 0.4 NNE 4 7 2 4 1014.4 1014.2 0.0
29/07:00am 16.2 18.1 15.7 97 0.3 CALM 0 0 0 0 1014.2 1014.0 0.0
29/06:30am 16.7 18.8 16.2 97 0.3 CALM 0 0 0 0 1013.9 1013.7 0.0
29/06:00am 17.6 18.9 17.1 97 0.3 NNE 6 7 3 4 1013.5 1013.3 0.0
29/05:30am 18.0 19.5 17.7 98 0.2 NNE 6 7 3 4 1013.1 1012.9 0.0
29/05:00am 18.4 19.9 17.7 96 0.4 NE 6 7 3 4 1012.7 1012.5 0.0
29/04:30am 18.5 20.9 18.0 97 0.3 NNE 2 7 1 4 1012.7 1012.5 0.0
29/04:00am 16.5 18.5 16.0 97 0.3 CALM 0 0 0 0 1012.5 1012.3 0.0
29/03:30am 19.1 22.2 18.6 97 0.3 CALM 0 0 0 0 1012.6 1012.4 0.0
29/03:00am 18.8 20.5 18.0 95 0.5 NNE 6 7 3 4 1012.7 1012.5 0.0
29/02:30am 19.1 20.9 18.3 95 0.5 NNE 6 6 3 3 1012.8 1012.6 0.0
29/02:00am 19.7 22.7 18.4 92 0.8 CALM 0 0 0 0 1013.0 1012.8 0.0
29/01:30am 20.5 23.6 19.6 95 0.6 W 2 6 1 3 1013.1 1012.9 0.0
29/01:00am 21.7 24.1 20.0 90 1.1 NW 7 11 4 6 1013.3 1013.1 0.0
29/12:30am 22.3 24.9 20.1 87 1.4 NW 6 9 3 5 1013.5 1013.3 0.0
29/12:00am 22.9 25.3 20.1 84 1.8 WNW 7 9 4 5 1013.5 1013.3 0.0
 
Date/Time
CST
Temp
°C
App
Temp
°C
Dew
Point
°C
Rel
Hum
%
Delta-T
°C
Wind Press
QNH
hPa
Press
MSL
hPa
Rain since
9am
mm
Dir  Spd
km/h
Gust
km/h
Spd
kts
Gust
kts
28/11:30pm 23.2 26.6 20.1 83 2.0 NW 2 7 1 4 1013.5 1013.3 0.0
28/11:00pm 23.8 26.1 19.9 79 2.5 WNW 7 13 4 7 1013.5 1013.3 0.0
28/10:30pm 24.1 25.8 19.3 74 3.1 NW 9 13 5 7 1013.1 1012.9 0.0
28/10:00pm 24.4 25.1 17.1 63 4.5 WNW 9 15 5 8 1012.9 1012.7 0.0
28/09:30pm 22.1 21.6 8.0 40 7.4 CALM 0 0 0 0 1012.3 1012.1 0.0
28/09:00pm 22.7 22.7 9.8 44 7.0 CALM 0 6 0 3 1012.1 1011.9 0.0
28/08:30pm 24.1 22.2 7.6 34 8.7 E 7 11 4 6 1011.8 1011.6 0.0
28/08:00pm 25.4 22.0 5.7 28 10.1 E 13 15 7 8 1011.6 1011.4 0.0
28/07:30pm 27.3 24.1 5.1 24 11.4 SE 11 13 6 7 1011.1 1010.9 0.0
28/07:00pm 28.2 24.9 4.3 21 12.2 SE 11 13 6 7 1010.9 1010.7 0.0
28/06:30pm 29.1 25.5 5.0 21 12.5 SSE 13 13 7 7 1010.7 1010.5 0.0
28/06:00pm 32.0 28.3 4.5 17 14.4 SSE 13 15 7 8 1010.5 1010.3 0.0
28/05:30pm 33.6 30.1 3.3 15 15.7 SSE 11 17 6 9 1010.4 1010.2 0.0
28/05:00pm 34.0 30.4 3.1 14 16.0 SE 11 17 6 9 1010.2 1010.0 0.0
28/04:30pm 34.6 30.8 3.7 14 16.2 SE 13 28 7 15 1010.2 1010.0 0.0
28/04:00pm 34.0 29.9 4.6 16 15.6 ESE 15 22 8 12 1010.2 1010.0 0.0
28/03:30pm 34.1 31.6 6.5 18 15.1 SW 9 17 5 9 1010.4 1010.2 0.0
28/03:00pm 34.0 32.5 6.6 18 15.0 WNW 4 9 2 5 1010.8 1010.6 0.0
28/02:30pm 33.9 30.5 6.1 17 15.1 SSE 13 20 7 11 1011.3 1011.1 0.0
28/02:00pm 33.6 31.4 8.0 20 14.3 S 9 17 5 9 1011.8 1011.6 0.0
28/01:30pm 32.7 31.0 9.8 24 13.1 ESE 9 17 5 9 1012.4 1012.2 0.0
28/01:00pm 32.2 30.5 9.7 25 12.8 NE 9 15 5 8 1013.1 1012.9 0.0
28/12:30pm 32.6 31.2 10.9 26 12.6 NNE 9 13 5 7 1013.8 1013.6 0.0
28/12:00pm 31.8 31.0 11.7 29 11.8 ENE 7 13 4 7 1014.4 1014.2 0.0
28/11:30am 31.6 30.8 12.8 31 11.2 NNE 9 15 5 8 1014.9 1014.7 0.0
28/11:00am 30.5 29.9 13.5 35 10.2 NE 9 13 5 7 1015.3 1015.1 0.0
28/10:30am 29.6 29.4 13.5 37 9.6 NE 7 11 4 6 1015.9 1015.7 0.0
28/10:00am 27.5 27.7 14.1 43 8.0 NE 6 13 3 7 1016.2 1016.0 0.0
28/09:30am 25.2 24.7 12.5 45 7.3 NE 7 13 4 7 1016.3 1016.1 0.0
28/09:00am 22.8 21.2 8.0 38 7.8 E 6 9 3 5 1016.4 1016.2 0.0
28/08:58am 22.6 20.8 7.1 36 8.0 E 6 9 3 5 1016.4 1016.2 0.0
28/08:30am 17.4 17.1 8.7 56 4.5 CALM 0 6 0 3 1016.5 1016.3 0.0
28/08:00am 15.0 13.9 8.5 65 3.3 NE 4 7 2 4 1016.5 1016.3 0.0
28/07:30am 13.7 11.6 8.3 70 2.7 ENE 9 13 5 7 1016.1 1015.9 0.0
28/07:00am 10.2 9.7 7.9 86 1.1 CALM 0 0 0 0 1015.9 1015.7 0.0
28/06:30am 13.5 11.6 7.6 67 2.9 NE 7 11 4 6 1015.5 1015.3 0.0
28/06:00am 13.4 12.1 7.5 67 2.9 E 4 7 2 4 1015.1 1014.9 0.0
28/05:30am 10.8 10.3 7.9 82 1.4 CALM 0 0 0 0 1015.0 1014.8 0.0
28/05:00am 13.5 13.1 8.1 70 2.7 CALM 0 0 0 0 1014.7 1014.5 0.0
28/04:30am 14.0 13.6 8.4 69 2.8 CALM 0 0 0 0 1014.8 1014.6 0.0
28/04:00am 13.5 12.7 8.3 71 2.6 N 2 6 1 3 1014.9 1014.7 0.0
28/03:30am 16.4 14.4 7.1 54 4.6 NW 7 11 4 6 1014.8 1014.6 0.0
28/03:00am 15.3 13.3 8.6 64 3.4 NW 9 11 5 6 1014.7 1014.5 0.0
28/02:30am 16.2 16.4 10.6 69 3.0 CALM 0 0 0 0 1014.6 1014.4 0.0
28/02:00am 16.7 15.5 9.6 63 3.7 ENE 6 9 3 5 1014.7 1014.5 0.0
28/01:30am 15.7 14.0 8.4 62 3.7 SE 7 9 4 5 1014.7 1014.5 0.0
28/01:00am 16.6 16.7 10.2 66 3.4 CALM 0 0 0 0 1014.9 1014.7 0.0
28/12:30am 18.2 16.8 8.8 54 4.9 ENE 6 7 3 4 1015.1 1014.9 0.0
28/12:00am 18.0 18.1 10.3 60 4.1 CALM 0 0 0 0 1015.3 1015.1 0.0
 
Date/Time
CST
Temp
°C
App
Temp
°C
Dew
Point
°C
Rel
Hum
%
Delta-T
°C
Wind Press
QNH
hPa
Press
MSL
hPa
Rain since
9am
mm
Dir  Spd
km/h
Gust
km/h
Spd
kts
Gust
kts
27/11:30pm 18.8 17.6 9.5 54 4.9 ESE 6 7 3 4 1015.3 1015.1 0.0
27/11:00pm 21.0 19.6 7.1 40 7.1 ESE 4 6 2 3 1015.3 1015.1 0.0
27/10:30pm 20.6 19.5 8.6 46 6.3 E 4 6 2 3 1015.2 1015.0 0.0
27/10:00pm 22.1 20.2 6.6 36 7.9 ESE 6 7 3 4 1015.2 1015.0 0.0
27/09:30pm 22.5 20.0 6.4 35 8.2 SE 9 11 5 6 1015.0 1014.8 0.0
27/09:00pm 23.6 21.0 6.2 32 8.9 SE 9 11 5 6 1014.8 1014.6 0.0
27/08:30pm 24.5 21.9 6.3 31 9.4 SE 9 9 5 5 1014.3 1014.1 0.0
27/08:00pm 24.7 21.8 6.3 30 9.5 SE 11 13 6 7 1013.9 1013.7 0.0
27/07:30pm 25.6 23.6 7.2 31 9.7 SSE 7 9 4 5 1013.4 1013.2 0.0
27/07:00pm 26.6 24.0 7.8 30 10.1 SSE 11 11 6 6 1013.0 1012.8 0.0

Other Formats:

Comma delimited format used in spreadsheet applications
http://www.bom.gov.au/fwo/IDD60801/IDD60801.94128.axf

JavaScript Object Notation format (JSON) in row-major order
http://www.bom.gov.au/fwo/IDD60801/IDD60801.94128.json